sensor_id;sensor_type;location;lat;lon;timestamp;temperature;humidity
75893;DHT22;64572;50.950;3.676;2022-11-20T00:01:17;6.00;89.80
75893;DHT22;64572;50.950;3.676;2022-11-20T00:03:43;5.90;90.10
75893;DHT22;64572;50.950;3.676;2022-11-20T00:06:14;5.90;90.40
75893;DHT22;64572;50.950;3.676;2022-11-20T00:08:40;5.80;90.40
75893;DHT22;64572;50.950;3.676;2022-11-20T00:11:11;5.80;90.80
75893;DHT22;64572;50.950;3.676;2022-11-20T00:13:37;5.90;90.20
75893;DHT22;64572;50.950;3.676;2022-11-20T00:16:05;6.00;90.30
75893;DHT22;64572;50.950;3.676;2022-11-20T00:18:33;6.00;90.60
75893;DHT22;64572;50.950;3.676;2022-11-20T00:21:04;5.80;90.80
75893;DHT22;64572;50.950;3.676;2022-11-20T00:23:30;5.80;90.80
75893;DHT22;64572;50.950;3.676;2022-11-20T00:26:00;5.80;90.70
75893;DHT22;64572;50.950;3.676;2022-11-20T00:28:26;6.00;90.30
75893;DHT22;64572;50.950;3.676;2022-11-20T00:30:51;6.20;89.90
75893;DHT22;64572;50.950;3.676;2022-11-20T00:33:17;6.10;89.70
75893;DHT22;64572;50.950;3.676;2022-11-20T00:35:42;6.00;90.10
75893;DHT22;64572;50.950;3.676;2022-11-20T00:38:08;6.10;90.00
75893;DHT22;64572;50.950;3.676;2022-11-20T00:40:33;6.10;90.00
75893;DHT22;64572;50.950;3.676;2022-11-20T00:42:59;6.10;90.00
75893;DHT22;64572;50.950;3.676;2022-11-20T00:45:25;6.10;90.00
75893;DHT22;64572;50.950;3.676;2022-11-20T00:47:50;6.20;89.50
75893;DHT22;64572;50.950;3.676;2022-11-20T00:50:16;6.20;89.30
75893;DHT22;64572;50.950;3.676;2022-11-20T00:52:42;6.00;89.30
75893;DHT22;64572;50.950;3.676;2022-11-20T00:55:07;6.20;88.80
75893;DHT22;64572;50.950;3.676;2022-11-20T00:57:33;6.30;89.20
75893;DHT22;64572;50.950;3.676;2022-11-20T00:59:58;6.30;89.50
75893;DHT22;64572;50.950;3.676;2022-11-20T01:02:24;6.20;88.70
75893;DHT22;64572;50.950;3.676;2022-11-20T01:04:50;6.10;90.00
75893;DHT22;64572;50.950;3.676;2022-11-20T01:07:15;6.10;89.80
75893;DHT22;64572;50.950;3.676;2022-11-20T01:09:41;6.20;89.40
75893;DHT22;64572;50.950;3.676;2022-11-20T01:12:07;6.20;88.70
75893;DHT22;64572;50.950;3.676;2022-11-20T01:14:32;6.10;89.20
75893;DHT22;64572;50.950;3.676;2022-11-20T01:16:58;6.20;89.90
75893;DHT22;64572;50.950;3.676;2022-11-20T01:19:23;6.10;90.10
75893;DHT22;64572;50.950;3.676;2022-11-20T01:21:52;6.00;90.40
75893;DHT22;64572;50.950;3.676;2022-11-20T01:24:19;6.20;89.70
75893;DHT22;64572;50.950;3.676;2022-11-20T01:26:48;6.30;88.80
75893;DHT22;64572;50.950;3.676;2022-11-20T01:29:18;6.00;89.50
75893;DHT22;64572;50.950;3.676;2022-11-20T01:31:44;5.70;90.60
75893;DHT22;64572;50.950;3.676;2022-11-20T01:34:12;5.50;91.00
75893;DHT22;64572;50.950;3.676;2022-11-20T01:36:38;5.40;91.30
75893;DHT22;64572;50.950;3.676;2022-11-20T01:39:17;5.40;91.50
75893;DHT22;64572;50.950;3.676;2022-11-20T01:41:43;5.20;91.80
75893;DHT22;64572;50.950;3.676;2022-11-20T01:45:00;5.40;91.50
75893;DHT22;64572;50.950;3.676;2022-11-20T01:47:33;5.50;91.30
75893;DHT22;64572;50.950;3.676;2022-11-20T01:50:12;5.60;90.90
75893;DHT22;64572;50.950;3.676;2022-11-20T01:52:42;5.70;90.80
75893;DHT22;64572;50.950;3.676;2022-11-20T01:55:15;5.70;90.70
75893;DHT22;64572;50.950;3.676;2022-11-20T01:57:44;5.80;90.60
75893;DHT22;64572;50.950;3.676;2022-11-20T02:00:13;5.80;91.00
75893;DHT22;64572;50.950;3.676;2022-11-20T02:02:42;5.90;90.90
75893;DHT22;64572;50.950;3.676;2022-11-20T02:05:31;6.10;90.30
75893;DHT22;64572;50.950;3.676;2022-11-20T02:07:58;6.20;90.00
75893;DHT22;64572;50.950;3.676;2022-11-20T02:10:24;6.40;88.90
75893;DHT22;64572;50.950;3.676;2022-11-20T02:12:51;6.50;88.50
75893;DHT22;64572;50.950;3.676;2022-11-20T02:15:35;6.60;87.80
75893;DHT22;64572;50.950;3.676;2022-11-20T02:18:01;6.10;88.80
75893;DHT22;64572;50.950;3.676;2022-11-20T02:20:27;6.20;89.90
75893;DHT22;64572;50.950;3.676;2022-11-20T02:23:01;6.20;89.70
75893;DHT22;64572;50.950;3.676;2022-11-20T02:25:31;6.10;89.70
75893;DHT22;64572;50.950;3.676;2022-11-20T02:27:57;6.20;90.00
75893;DHT22;64572;50.950;3.676;2022-11-20T02:30:23;6.10;90.00
75893;DHT22;64572;50.950;3.676;2022-11-20T02:32:49;6.20;90.10
75893;DHT22;64572;50.950;3.676;2022-11-20T02:37:43;6.00;90.20
75893;DHT22;64572;50.950;3.676;2022-11-20T02:40:10;6.00;90.10
75893;DHT22;64572;50.950;3.676;2022-11-20T02:42:37;5.90;90.10
75893;DHT22;64572;50.950;3.676;2022-11-20T02:45:04;5.70;90.80
75893;DHT22;64572;50.950;3.676;2022-11-20T02:47:30;5.60;90.70
75893;DHT22;64572;50.950;3.676;2022-11-20T02:49:56;5.60;90.90
75893;DHT22;64572;50.950;3.676;2022-11-20T02:52:22;5.60;91.30
75893;DHT22;64572;50.950;3.676;2022-11-20T02:54:47;5.60;91.10
75893;DHT22;64572;50.950;3.676;2022-11-20T02:57:13;5.50;91.20
75893;DHT22;64572;50.950;3.676;2022-11-20T02:59:39;5.50;91.40
75893;DHT22;64572;50.950;3.676;2022-11-20T03:02:04;5.50;91.50
75893;DHT22;64572;50.950;3.676;2022-11-20T03:04:30;5.50;91.30
75893;DHT22;64572;50.950;3.676;2022-11-20T03:06:56;5.60;91.40
75893;DHT22;64572;50.950;3.676;2022-11-20T03:09:21;5.60;91.70
75893;DHT22;64572;50.950;3.676;2022-11-20T03:11:47;5.70;91.60
75893;DHT22;64572;50.950;3.676;2022-11-20T03:14:13;5.80;91.50
75893;DHT22;64572;50.950;3.676;2022-11-20T03:16:39;5.80;91.40
75893;DHT22;64572;50.950;3.676;2022-11-20T03:19:06;5.80;91.20
75893;DHT22;64572;50.950;3.676;2022-11-20T03:21:35;5.80;91.60
75893;DHT22;64572;50.950;3.676;2022-11-20T03:24:01;5.90;91.10
75893;DHT22;64572;50.950;3.676;2022-11-20T03:26:27;6.00;91.20
75893;DHT22;64572;50.950;3.676;2022-11-20T03:28:55;5.90;91.40
75893;DHT22;64572;50.950;3.676;2022-11-20T03:31:24;5.90;91.40
75893;DHT22;64572;50.950;3.676;2022-11-20T03:33:50;6.20;91.20
75893;DHT22;64572;50.950;3.676;2022-11-20T03:36:17;6.20;90.60
75893;DHT22;64572;50.950;3.676;2022-11-20T03:38:43;6.30;90.80
75893;DHT22;64572;50.950;3.676;2022-11-20T03:41:18;6.20;90.90
75893;DHT22;64572;50.950;3.676;2022-11-20T03:44:05;6.30;90.80
75893;DHT22;64572;50.950;3.676;2022-11-20T03:46:31;6.20;90.70
75893;DHT22;64572;50.950;3.676;2022-11-20T03:48:57;6.20;90.80
75893;DHT22;64572;50.950;3.676;2022-11-20T03:51:24;6.20;90.70
75893;DHT22;64572;50.950;3.676;2022-11-20T03:53:52;6.10;91.00
75893;DHT22;64572;50.950;3.676;2022-11-20T03:56:20;5.90;91.40
75893;DHT22;64572;50.950;3.676;2022-11-20T03:58:47;6.00;91.60
75893;DHT22;64572;50.950;3.676;2022-11-20T04:01:18;6.10;91.00
75893;DHT22;64572;50.950;3.676;2022-11-20T04:03:45;6.10;91.10
75893;DHT22;64572;50.950;3.676;2022-11-20T04:06:14;6.30;90.70
75893;DHT22;64572;50.950;3.676;2022-11-20T04:08:40;6.30;90.80
75893;DHT22;64572;50.950;3.676;2022-11-20T04:11:16;5.90;91.30
75893;DHT22;64572;50.950;3.676;2022-11-20T04:13:46;5.80;91.80
75893;DHT22;64572;50.950;3.676;2022-11-20T04:16:11;5.80;91.90
75893;DHT22;64572;50.950;3.676;2022-11-20T04:18:37;5.90;92.00
75893;DHT22;64572;50.950;3.676;2022-11-20T04:21:04;5.90;91.60
75893;DHT22;64572;50.950;3.676;2022-11-20T04:23:30;6.00;91.90
75893;DHT22;64572;50.950;3.676;2022-11-20T04:26:01;6.10;91.60
75893;DHT22;64572;50.950;3.676;2022-11-20T04:28:27;6.00;91.60
75893;DHT22;64572;50.950;3.676;2022-11-20T04:30:53;6.20;91.50
75893;DHT22;64572;50.950;3.676;2022-11-20T04:33:18;6.10;91.40
75893;DHT22;64572;50.950;3.676;2022-11-20T04:35:46;5.90;91.80
75893;DHT22;64572;50.950;3.676;2022-11-20T04:38:13;5.90;92.00
75893;DHT22;64572;50.950;3.676;2022-11-20T04:40:38;5.90;92.10
75893;DHT22;64572;50.950;3.676;2022-11-20T04:43:04;5.90;92.20
75893;DHT22;64572;50.950;3.676;2022-11-20T04:45:29;5.80;92.40
75893;DHT22;64572;50.950;3.676;2022-11-20T04:47:55;5.90;92.10
75893;DHT22;64572;50.950;3.676;2022-11-20T04:50:21;5.80;92.30
75893;DHT22;64572;50.950;3.676;2022-11-20T04:52:47;5.90;92.30
75893;DHT22;64572;50.950;3.676;2022-11-20T04:55:12;5.90;92.20
75893;DHT22;64572;50.950;3.676;2022-11-20T04:57:38;5.80;92.10
75893;DHT22;64572;50.950;3.676;2022-11-20T05:00:04;5.70;92.50
75893;DHT22;64572;50.950;3.676;2022-11-20T05:02:31;5.80;92.50
75893;DHT22;64572;50.950;3.676;2022-11-20T05:04:57;5.80;92.50
75893;DHT22;64572;50.950;3.676;2022-11-20T05:07:22;5.80;92.10
75893;DHT22;64572;50.950;3.676;2022-11-20T05:09:48;5.80;92.20
75893;DHT22;64572;50.950;3.676;2022-11-20T05:12:13;5.70;92.40
75893;DHT22;64572;50.950;3.676;2022-11-20T05:14:39;5.60;92.80
75893;DHT22;64572;50.950;3.676;2022-11-20T05:17:05;5.70;92.70
75893;DHT22;64572;50.950;3.676;2022-11-20T05:19:30;5.90;91.90
75893;DHT22;64572;50.950;3.676;2022-11-20T05:21:56;5.90;92.10
75893;DHT22;64572;50.950;3.676;2022-11-20T05:24:22;5.80;92.10
75893;DHT22;64572;50.950;3.676;2022-11-20T05:26:47;5.90;91.90
75893;DHT22;64572;50.950;3.676;2022-11-20T05:29:13;5.80;91.90
75893;DHT22;64572;50.950;3.676;2022-11-20T05:31:40;5.70;92.20
75893;DHT22;64572;50.950;3.676;2022-11-20T05:34:06;5.70;92.20
75893;DHT22;64572;50.950;3.676;2022-11-20T05:36:31;5.70;92.30
75893;DHT22;64572;50.950;3.676;2022-11-20T05:38:57;5.80;92.30
75893;DHT22;64572;50.950;3.676;2022-11-20T05:41:23;5.90;91.80
75893;DHT22;64572;50.950;3.676;2022-11-20T05:43:49;5.90;91.80
75893;DHT22;64572;50.950;3.676;2022-11-20T05:46:19;5.80;92.00
75893;DHT22;64572;50.950;3.676;2022-11-20T05:48:46;5.60;92.40
75893;DHT22;64572;50.950;3.676;2022-11-20T05:51:14;5.70;92.30
75893;DHT22;64572;50.950;3.676;2022-11-20T05:53:41;5.70;92.10
75893;DHT22;64572;50.950;3.676;2022-11-20T05:56:12;5.80;91.90
75893;DHT22;64572;50.950;3.676;2022-11-20T05:58:38;5.60;92.30
75893;DHT22;64572;50.950;3.676;2022-11-20T06:01:11;5.60;92.70
75893;DHT22;64572;50.950;3.676;2022-11-20T06:03:38;5.70;92.60
75893;DHT22;64572;50.950;3.676;2022-11-20T06:06:05;5.80;92.30
75893;DHT22;64572;50.950;3.676;2022-11-20T06:08:31;6.00;91.70
75893;DHT22;64572;50.950;3.676;2022-11-20T06:10:57;5.90;91.80
75893;DHT22;64572;50.950;3.676;2022-11-20T06:13:23;5.90;91.70
75893;DHT22;64572;50.950;3.676;2022-11-20T06:15:52;5.90;92.20
75893;DHT22;64572;50.950;3.676;2022-11-20T06:18:19;6.00;92.10
75893;DHT22;64572;50.950;3.676;2022-11-20T06:20:46;6.20;91.90
75893;DHT22;64572;50.950;3.676;2022-11-20T06:23:12;6.20;91.60
75893;DHT22;64572;50.950;3.676;2022-11-20T06:25:42;6.10;91.50
75893;DHT22;64572;50.950;3.676;2022-11-20T06:28:08;6.20;92.00
75893;DHT22;64572;50.950;3.676;2022-11-20T06:30:34;6.10;91.60
75893;DHT22;64572;50.950;3.676;2022-11-20T06:33:00;6.20;91.80
75893;DHT22;64572;50.950;3.676;2022-11-20T06:35:26;6.20;91.60
75893;DHT22;64572;50.950;3.676;2022-11-20T06:37:51;6.20;92.00
75893;DHT22;64572;50.950;3.676;2022-11-20T06:40:17;6.10;91.90
75893;DHT22;64572;50.950;3.676;2022-11-20T06:42:43;6.00;92.20
75893;DHT22;64572;50.950;3.676;2022-11-20T06:45:09;6.10;92.00
75893;DHT22;64572;50.950;3.676;2022-11-20T06:47:35;6.10;91.90
75893;DHT22;64572;50.950;3.676;2022-11-20T06:50:00;6.20;91.90
75893;DHT22;64572;50.950;3.676;2022-11-20T06:52:26;6.20;92.20
75893;DHT22;64572;50.950;3.676;2022-11-20T06:54:52;6.30;91.90
75893;DHT22;64572;50.950;3.676;2022-11-20T06:57:17;6.40;91.50
75893;DHT22;64572;50.950;3.676;2022-11-20T06:59:43;6.60;91.60
75893;DHT22;64572;50.950;3.676;2022-11-20T07:02:12;6.30;91.70
75893;DHT22;64572;50.950;3.676;2022-11-20T07:04:38;6.20;92.10
75893;DHT22;64572;50.950;3.676;2022-11-20T07:07:04;6.30;92.30
75893;DHT22;64572;50.950;3.676;2022-11-20T07:09:31;6.40;91.90
75893;DHT22;64572;50.950;3.676;2022-11-20T07:11:57;6.40;92.10
75893;DHT22;64572;50.950;3.676;2022-11-20T07:14:23;6.40;91.80
75893;DHT22;64572;50.950;3.676;2022-11-20T07:16:48;6.30;92.10
75893;DHT22;64572;50.950;3.676;2022-11-20T07:19:14;6.30;92.30
75893;DHT22;64572;50.950;3.676;2022-11-20T07:21:40;6.40;92.30
75893;DHT22;64572;50.950;3.676;2022-11-20T07:24:05;6.40;92.20
75893;DHT22;64572;50.950;3.676;2022-11-20T07:26:31;6.60;92.10
75893;DHT22;64572;50.950;3.676;2022-11-20T07:28:57;6.40;92.20
75893;DHT22;64572;50.950;3.676;2022-11-20T07:31:22;6.50;92.20
75893;DHT22;64572;50.950;3.676;2022-11-20T07:33:48;6.60;92.20
75893;DHT22;64572;50.950;3.676;2022-11-20T07:36:13;6.70;91.80
75893;DHT22;64572;50.950;3.676;2022-11-20T07:38:39;6.70;92.00
75893;DHT22;64572;50.950;3.676;2022-11-20T07:41:05;6.60;92.30
75893;DHT22;64572;50.950;3.676;2022-11-20T07:43:30;6.50;92.40
75893;DHT22;64572;50.950;3.676;2022-11-20T07:45:57;6.40;92.70
75893;DHT22;64572;50.950;3.676;2022-11-20T07:48:23;6.50;93.00
75893;DHT22;64572;50.950;3.676;2022-11-20T07:50:49;6.50;92.80
75893;DHT22;64572;50.950;3.676;2022-11-20T07:53:15;6.60;92.30
75893;DHT22;64572;50.950;3.676;2022-11-20T07:55:46;6.70;92.30
75893;DHT22;64572;50.950;3.676;2022-11-20T07:58:11;6.80;92.00
75893;DHT22;64572;50.950;3.676;2022-11-20T08:00:37;6.90;92.00
75893;DHT22;64572;50.950;3.676;2022-11-20T08:03:04;6.90;91.90
75893;DHT22;64572;50.950;3.676;2022-11-20T08:05:30;6.70;92.00
75893;DHT22;64572;50.950;3.676;2022-11-20T08:07:55;6.90;92.00
75893;DHT22;64572;50.950;3.676;2022-11-20T08:10:21;6.90;91.70
75893;DHT22;64572;50.950;3.676;2022-11-20T08:12:48;6.90;92.00
75893;DHT22;64572;50.950;3.676;2022-11-20T08:15:32;7.00;91.80
75893;DHT22;64572;50.950;3.676;2022-11-20T08:18:11;6.90;91.70
75893;DHT22;64572;50.950;3.676;2022-11-20T08:20:37;6.70;92.40
75893;DHT22;64572;50.950;3.676;2022-11-20T08:23:07;6.80;92.60
75893;DHT22;64572;50.950;3.676;2022-11-20T08:25:35;6.80;92.40
75893;DHT22;64572;50.950;3.676;2022-11-20T08:28:06;6.80;92.40
75893;DHT22;64572;50.950;3.676;2022-11-20T08:30:33;6.80;92.70
75893;DHT22;64572;50.950;3.676;2022-11-20T08:33:07;6.90;92.40
75893;DHT22;64572;50.950;3.676;2022-11-20T08:35:37;6.80;92.40
75893;DHT22;64572;50.950;3.676;2022-11-20T08:38:05;7.00;92.60
75893;DHT22;64572;50.950;3.676;2022-11-20T08:40:31;6.90;92.30
75893;DHT22;64572;50.950;3.676;2022-11-20T08:42:57;7.00;92.30
75893;DHT22;64572;50.950;3.676;2022-11-20T08:45:23;7.00;92.30
75893;DHT22;64572;50.950;3.676;2022-11-20T08:47:49;7.20;92.10
75893;DHT22;64572;50.950;3.676;2022-11-20T08:50:16;7.20;92.00
75893;DHT22;64572;50.950;3.676;2022-11-20T08:52:43;7.20;92.10
75893;DHT22;64572;50.950;3.676;2022-11-20T08:55:09;7.20;92.10
75893;DHT22;64572;50.950;3.676;2022-11-20T08:57:36;7.10;92.30
75893;DHT22;64572;50.950;3.676;2022-11-20T09:00:04;7.40;91.70
75893;DHT22;64572;50.950;3.676;2022-11-20T09:02:30;7.30;91.70
75893;DHT22;64572;50.950;3.676;2022-11-20T09:04:57;7.40;92.10
75893;DHT22;64572;50.950;3.676;2022-11-20T09:07:23;7.40;92.20
75893;DHT22;64572;50.950;3.676;2022-11-20T09:09:49;7.50;91.80
75893;DHT22;64572;50.950;3.676;2022-11-20T09:12:15;7.60;91.70
75893;DHT22;64572;50.950;3.676;2022-11-20T09:14:40;7.50;91.80
75893;DHT22;64572;50.950;3.676;2022-11-20T09:17:07;7.50;91.90
75893;DHT22;64572;50.950;3.676;2022-11-20T09:19:33;7.50;91.50
75893;DHT22;64572;50.950;3.676;2022-11-20T09:21:59;7.70;91.80
75893;DHT22;64572;50.950;3.676;2022-11-20T09:24:26;7.70;91.80
75893;DHT22;64572;50.950;3.676;2022-11-20T09:26:51;7.80;91.30
75893;DHT22;64572;50.950;3.676;2022-11-20T09:29:17;7.70;91.40
75893;DHT22;64572;50.950;3.676;2022-11-20T09:31:43;7.70;91.80
75893;DHT22;64572;50.950;3.676;2022-11-20T09:34:08;7.70;91.60
75893;DHT22;64572;50.950;3.676;2022-11-20T09:36:35;7.90;91.30
75893;DHT22;64572;50.950;3.676;2022-11-20T09:39:00;7.90;91.20
75893;DHT22;64572;50.950;3.676;2022-11-20T09:49:40;8.30;90.60
75893;DHT22;64572;50.950;3.676;2022-11-20T09:54:50;8.80;88.60
75893;DHT22;64572;50.950;3.676;2022-11-20T09:57:23;8.80;89.60
75893;DHT22;64572;50.950;3.676;2022-11-20T10:00:01;8.80;88.70
75893;DHT22;64572;50.950;3.676;2022-11-20T10:05:47;8.90;87.50
75893;DHT22;64572;50.950;3.676;2022-11-20T10:08:19;9.00;87.90
75893;DHT22;64572;50.950;3.676;2022-11-20T10:10:52;9.00;88.10
75893;DHT22;64572;50.950;3.676;2022-11-20T10:13:57;8.90;89.00
75893;DHT22;64572;50.950;3.676;2022-11-20T10:24:55;8.60;89.20
75893;DHT22;64572;50.950;3.676;2022-11-20T10:30:10;8.60;88.20
75893;DHT22;64572;50.950;3.676;2022-11-20T10:32:39;8.70;88.80
75893;DHT22;64572;50.950;3.676;2022-11-20T10:37:45;8.60;89.40
75893;DHT22;64572;50.950;3.676;2022-11-20T10:42:51;8.70;88.30
75893;DHT22;64572;50.950;3.676;2022-11-20T10:47:54;8.70;88.70
75893;DHT22;64572;50.950;3.676;2022-11-20T10:50:21;8.60;88.40
75893;DHT22;64572;50.950;3.676;2022-11-20T10:53:26;8.70;88.60
75893;DHT22;64572;50.950;3.676;2022-11-20T10:55:57;8.70;87.80
75893;DHT22;64572;50.950;3.676;2022-11-20T11:01:04;8.80;88.00
75893;DHT22;64572;50.950;3.676;2022-11-20T11:03:31;8.70;88.20
75893;DHT22;64572;50.950;3.676;2022-11-20T11:08:38;8.70;88.30
75893;DHT22;64572;50.950;3.676;2022-11-20T11:11:52;8.80;88.50
75893;DHT22;64572;50.950;3.676;2022-11-20T11:14:13;8.70;87.30
75893;DHT22;64572;50.950;3.676;2022-11-20T11:17:17;8.70;88.00
75893;DHT22;64572;50.950;3.676;2022-11-20T11:19:43;8.80;86.50
75893;DHT22;64572;50.950;3.676;2022-11-20T11:22:16;8.80;88.10
75893;DHT22;64572;50.950;3.676;2022-11-20T11:24:51;8.60;89.10
75893;DHT22;64572;50.950;3.676;2022-11-20T11:27:17;8.50;89.80
75893;DHT22;64572;50.950;3.676;2022-11-20T11:29:43;8.40;90.80
75893;DHT22;64572;50.950;3.676;2022-11-20T11:32:19;8.20;91.00
75893;DHT22;64572;50.950;3.676;2022-11-20T11:35:05;8.20;92.00
75893;DHT22;64572;50.950;3.676;2022-11-20T11:37:36;8.00;92.20
75893;DHT22;64572;50.950;3.676;2022-11-20T11:40:08;7.90;92.60
75893;DHT22;64572;50.950;3.676;2022-11-20T11:42:35;7.90;92.70
75893;DHT22;64572;50.950;3.676;2022-11-20T11:45:07;7.90;92.30
75893;DHT22;64572;50.950;3.676;2022-11-20T11:47:43;7.80;92.70
75893;DHT22;64572;50.950;3.676;2022-11-20T11:55:12;7.80;92.90
75893;DHT22;64572;50.950;3.676;2022-11-20T12:00:16;7.70;93.00
75893;DHT22;64572;50.950;3.676;2022-11-20T12:05:43;7.80;93.50
75893;DHT22;64572;50.950;3.676;2022-11-20T12:11:20;7.80;93.40
75893;DHT22;64572;50.950;3.676;2022-11-20T12:16:38;7.80;93.90
75893;DHT22;64572;50.950;3.676;2022-11-20T12:19:12;7.90;94.00
75893;DHT22;64572;50.950;3.676;2022-11-20T12:24:52;8.00;94.00
75893;DHT22;64572;50.950;3.676;2022-11-20T12:27:47;8.00;93.80
75893;DHT22;64572;50.950;3.676;2022-11-20T12:50:28;8.10;94.60
75893;DHT22;64572;50.950;3.676;2022-11-20T12:53:25;8.00;94.60
75893;DHT22;64572;50.950;3.676;2022-11-20T12:56:17;8.00;95.00
75893;DHT22;64572;50.950;3.676;2022-11-20T13:07:05;8.10;94.60
75893;DHT22;64572;50.950;3.676;2022-11-20T13:09:32;8.10;94.70
75893;DHT22;64572;50.950;3.676;2022-11-20T13:12:06;8.10;94.20
75893;DHT22;64572;50.950;3.676;2022-11-20T13:14:50;8.10;94.30
75893;DHT22;64572;50.950;3.676;2022-11-20T13:20:14;8.20;94.60
75893;DHT22;64572;50.950;3.676;2022-11-20T13:22:45;8.20;94.60
75893;DHT22;64572;50.950;3.676;2022-11-20T13:25:25;8.20;94.40
75893;DHT22;64572;50.950;3.676;2022-11-20T13:27:52;8.30;94.40
75893;DHT22;64572;50.950;3.676;2022-11-20T13:30:28;8.30;94.20
75893;DHT22;64572;50.950;3.676;2022-11-20T13:33:08;8.20;94.20
75893;DHT22;64572;50.950;3.676;2022-11-20T13:36:02;8.20;94.10
75893;DHT22;64572;50.950;3.676;2022-11-20T13:38:39;8.20;94.30
75893;DHT22;64572;50.950;3.676;2022-11-20T13:41:08;8.20;94.10
75893;DHT22;64572;50.950;3.676;2022-11-20T13:43:52;8.20;94.20
75893;DHT22;64572;50.950;3.676;2022-11-20T13:46:19;8.40;94.20
75893;DHT22;64572;50.950;3.676;2022-11-20T13:48:50;8.30;93.90
75893;DHT22;64572;50.950;3.676;2022-11-20T13:51:28;8.40;93.90
75893;DHT22;64572;50.950;3.676;2022-11-20T13:56:40;8.40;93.90
75893;DHT22;64572;50.950;3.676;2022-11-20T21:39:36;7.60;90.70
75893;DHT22;64572;50.950;3.676;2022-11-20T21:42:14;7.70;91.00
75893;DHT22;64572;50.950;3.676;2022-11-20T21:44:40;7.70;91.00
75893;DHT22;64572;50.950;3.676;2022-11-20T21:47:06;7.70;91.00
75893;DHT22;64572;50.950;3.676;2022-11-20T21:49:31;7.80;90.90
75893;DHT22;64572;50.950;3.676;2022-11-20T21:51:57;7.70;90.70
75893;DHT22;64572;50.950;3.676;2022-11-20T21:54:22;7.80;90.60
75893;DHT22;64572;50.950;3.676;2022-11-20T21:56:48;7.80;91.00
75893;DHT22;64572;50.950;3.676;2022-11-20T21:59:14;7.80;90.40
75893;DHT22;64572;50.950;3.676;2022-11-20T22:01:39;7.80;90.10
75893;DHT22;64572;50.950;3.676;2022-11-20T22:04:05;7.70;90.10
75893;DHT22;64572;50.950;3.676;2022-11-20T22:06:33;7.70;90.70
75893;DHT22;64572;50.950;3.676;2022-11-20T22:08:59;7.60;90.70
75893;DHT22;64572;50.950;3.676;2022-11-20T22:11:25;7.60;90.50
75893;DHT22;64572;50.950;3.676;2022-11-20T22:13:51;7.50;90.70
75893;DHT22;64572;50.950;3.676;2022-11-20T22:16:36;7.60;90.50
75893;DHT22;64572;50.950;3.676;2022-11-20T22:19:02;7.60;90.20
75893;DHT22;64572;50.950;3.676;2022-11-20T22:21:29;7.70;90.00
75893;DHT22;64572;50.950;3.676;2022-11-20T22:23:56;7.70;89.90
75893;DHT22;64572;50.950;3.676;2022-11-20T22:26:30;7.60;90.10
75893;DHT22;64572;50.950;3.676;2022-11-20T22:28:57;7.70;90.10
75893;DHT22;64572;50.950;3.676;2022-11-20T22:31:25;7.70;89.50
75893;DHT22;64572;50.950;3.676;2022-11-20T22:33:51;7.60;90.30
75893;DHT22;64572;50.950;3.676;2022-11-20T22:36:20;7.80;90.20
75893;DHT22;64572;50.950;3.676;2022-11-20T22:38:46;7.90;89.40
75893;DHT22;64572;50.950;3.676;2022-11-20T22:41:20;7.80;90.80
75893;DHT22;64572;50.950;3.676;2022-11-20T22:43:46;7.80;91.00
75893;DHT22;64572;50.950;3.676;2022-11-20T22:46:14;8.00;90.80
75893;DHT22;64572;50.950;3.676;2022-11-20T22:48:42;7.90;90.80
75893;DHT22;64572;50.950;3.676;2022-11-20T22:51:10;7.70;91.00
75893;DHT22;64572;50.950;3.676;2022-11-20T22:53:37;7.40;91.90
75893;DHT22;64572;50.950;3.676;2022-11-20T22:56:04;7.50;92.30
75893;DHT22;64572;50.950;3.676;2022-11-20T22:58:31;7.50;92.30
75893;DHT22;64572;50.950;3.676;2022-11-20T23:03:37;7.60;92.10
75893;DHT22;64572;50.950;3.676;2022-11-20T23:06:03;7.70;91.50
75893;DHT22;64572;50.950;3.676;2022-11-20T23:08:30;7.70;91.40
75893;DHT22;64572;50.950;3.676;2022-11-20T23:11:00;7.50;91.80
75893;DHT22;64572;50.950;3.676;2022-11-20T23:13:26;7.50;92.00
75893;DHT22;64572;50.950;3.676;2022-11-20T23:15:52;7.50;92.20
75893;DHT22;64572;50.950;3.676;2022-11-20T23:18:18;7.50;92.30
75893;DHT22;64572;50.950;3.676;2022-11-20T23:20:44;7.40;92.60
75893;DHT22;64572;50.950;3.676;2022-11-20T23:23:09;7.40;92.60
75893;DHT22;64572;50.950;3.676;2022-11-20T23:25:35;7.30;92.70
75893;DHT22;64572;50.950;3.676;2022-11-20T23:28:00;7.30;92.70
75893;DHT22;64572;50.950;3.676;2022-11-20T23:30:26;7.10;92.90
75893;DHT22;64572;50.950;3.676;2022-11-20T23:32:52;7.10;92.90
75893;DHT22;64572;50.950;3.676;2022-11-20T23:35:17;7.20;92.60
75893;DHT22;64572;50.950;3.676;2022-11-20T23:37:43;7.40;92.40
75893;DHT22;64572;50.950;3.676;2022-11-20T23:40:09;7.40;91.90
75893;DHT22;64572;50.950;3.676;2022-11-20T23:42:35;7.40;91.90
75893;DHT22;64572;50.950;3.676;2022-11-20T23:45:00;7.40;91.50
75893;DHT22;64572;50.950;3.676;2022-11-20T23:47:26;7.10;92.20
75893;DHT22;64572;50.950;3.676;2022-11-20T23:49:51;7.00;92.40
75893;DHT22;64572;50.950;3.676;2022-11-20T23:52:17;7.00;92.50
75893;DHT22;64572;50.950;3.676;2022-11-20T23:54:43;6.90;92.50
75893;DHT22;64572;50.950;3.676;2022-11-20T23:57:08;7.00;92.50
75893;DHT22;64572;50.950;3.676;2022-11-20T23:59:34;7.10;92.20
